createdAt,value
2019-03-12T00:00:55.770Z,2.8
2019-03-12T00:02:04.948Z,2.8
2019-03-12T00:03:14.129Z,2.8
2019-03-12T00:04:23.404Z,2.7
2019-03-12T00:05:32.498Z,2.7
2019-03-12T00:06:41.668Z,2.7
2019-03-12T00:07:50.847Z,2.8
2019-03-12T00:09:00.048Z,2.8
2019-03-12T00:10:09.208Z,2.8
2019-03-12T00:11:18.381Z,2.7
2019-03-12T00:12:27.586Z,2.7
2019-03-12T00:13:36.753Z,2.7
2019-03-12T00:14:45.949Z,2.7
2019-03-12T00:15:55.124Z,2.7
2019-03-12T00:17:04.297Z,2.7
2019-03-12T00:18:13.533Z,2.7
2019-03-12T00:19:22.671Z,2.7
2019-03-12T00:20:31.840Z,2.7
2019-03-12T00:21:41.064Z,2.6
2019-03-12T00:22:50.288Z,2.6
2019-03-12T00:23:59.386Z,2.6
2019-03-12T00:25:08.619Z,2.5
2019-03-12T00:26:17.922Z,2.5
2019-03-12T00:27:26.925Z,2.5
2019-03-12T00:28:36.114Z,2.5
2019-03-12T00:29:45.287Z,2.5
2019-03-12T00:30:54.534Z,2.5
2019-03-12T00:32:03.660Z,2.5
2019-03-12T00:33:12.847Z,2.5
2019-03-12T00:34:22.089Z,2.5
2019-03-12T00:35:31.221Z,2.5
2019-03-12T00:36:40.791Z,2.5
2019-03-12T00:37:49.545Z,2.5
2019-03-12T00:38:58.737Z,2.5
2019-03-12T00:40:07.914Z,2.6
2019-03-12T00:41:19.919Z,2.6
2019-03-12T00:42:26.266Z,2.6
2019-03-12T00:43:35.453Z,2.6
2019-03-12T00:44:44.621Z,2.6
2019-03-12T00:45:53.903Z,2.7
2019-03-12T00:47:02.977Z,2.7
2019-03-12T00:48:12.165Z,2.6
2019-03-12T00:49:21.329Z,2.6
2019-03-12T00:50:30.512Z,2.7
2019-03-12T00:51:39.685Z,2.6
2019-03-12T00:52:48.885Z,2.6
2019-03-12T00:53:58.047Z,2.6
2019-03-12T00:55:07.243Z,2.6
2019-03-12T00:56:16.487Z,2.6
2019-03-12T00:57:25.586Z,2.6
2019-03-12T00:58:34.788Z,2.7
2019-03-12T00:59:43.942Z,2.7
2019-03-12T01:00:53.166Z,2.7
2019-03-12T01:02:02.394Z,2.7
2019-03-12T01:03:11.621Z,2.7
2019-03-12T01:04:20.725Z,2.7
2019-03-12T01:05:29.946Z,2.7
2019-03-12T01:06:39.034Z,2.7
2019-03-12T01:07:48.211Z,2.7
2019-03-12T01:08:57.384Z,2.8
2019-03-12T01:10:06.570Z,2.8
2019-03-12T01:11:15.754Z,2.7
2019-03-12T01:12:24.996Z,2.8
2019-03-12T01:13:34.116Z,2.8
2019-03-12T01:14:43.343Z,2.8
2019-03-12T01:15:52.483Z,2.8
2019-03-12T01:17:01.662Z,2.8
2019-03-12T01:18:13.571Z,2.8
2019-03-12T01:19:20.049Z,2.9
2019-03-12T01:20:29.228Z,2.9
2019-03-12T01:21:38.380Z,3
2019-03-12T01:22:47.625Z,2.9
2019-03-12T01:23:56.754Z,2.9
2019-03-12T01:25:05.933Z,2.9
2019-03-12T01:26:15.135Z,2.9
2019-03-12T01:27:24.432Z,2.9
2019-03-12T01:28:33.487Z,2.9
2019-03-12T01:29:42.886Z,2.9
2019-03-12T01:30:51.872Z,2.9
2019-03-12T01:32:01.222Z,3
2019-03-12T01:33:10.230Z,3
2019-03-12T01:34:19.945Z,3
2019-03-12T01:35:28.714Z,3
2019-03-12T01:36:37.816Z,3
2019-03-12T01:37:46.978Z,3
2019-03-12T01:38:56.188Z,3
2019-03-12T01:40:05.370Z,3
2019-03-12T01:41:14.562Z,3
2019-03-12T01:42:23.752Z,3
2019-03-12T01:43:32.927Z,3
2019-03-12T01:44:42.096Z,3
2019-03-12T01:45:51.287Z,3
2019-03-12T01:47:00.486Z,3.1
2019-03-12T01:48:09.671Z,3.1
2019-03-12T01:49:18.855Z,3.1
2019-03-12T01:50:28.583Z,3.1
2019-03-12T01:51:37.229Z,3.1
2019-03-12T01:52:46.537Z,3.1
2019-03-12T01:53:55.612Z,3.1
2019-03-12T01:55:04.806Z,3.2
2019-03-12T01:56:13.989Z,3.2
2019-03-12T01:57:23.171Z,3.2
2019-03-12T01:58:32.392Z,3.2
2019-03-12T01:59:41.672Z,3.2
2019-03-12T02:00:50.823Z,3.2
2019-03-12T02:01:59.923Z,3.2
2019-03-12T02:03:09.110Z,3.2
2019-03-12T02:04:18.300Z,3.2
2019-03-12T02:05:27.534Z,3.2
2019-03-12T02:06:36.699Z,3.2
2019-03-12T02:07:45.877Z,3.2
2019-03-12T02:08:55.070Z,3.2
2019-03-12T02:10:04.252Z,3.2
2019-03-12T02:11:13.442Z,3.2
2019-03-12T02:12:22.693Z,3.3
2019-03-12T02:13:31.822Z,3.2
2019-03-12T02:14:41.025Z,3.2
2019-03-12T02:15:50.207Z,3.2
2019-03-12T02:16:59.391Z,3.2
2019-03-12T02:18:08.615Z,3.3
2019-03-12T02:19:17.952Z,3.2
2019-03-12T02:20:27.092Z,3.2
2019-03-12T02:21:36.211Z,3.2
2019-03-12T02:22:45.418Z,3.2
2019-03-12T02:23:54.532Z,3.2
2019-03-12T02:25:03.728Z,3.2
2019-03-12T02:26:12.939Z,3.2
2019-03-12T02:27:22.129Z,3.2
2019-03-12T02:28:31.447Z,3.2
2019-03-12T02:29:40.535Z,3.2
2019-03-12T02:30:49.767Z,3.2
2019-03-12T02:31:58.884Z,3.3
2019-03-12T02:33:08.087Z,3.2
2019-03-12T02:34:17.321Z,3.3
2019-03-12T02:35:26.516Z,3.3
2019-03-12T02:36:35.671Z,3.3
2019-03-12T02:37:44.870Z,3.3
2019-03-12T02:38:54.028Z,3.3
2019-03-12T02:40:03.233Z,3.4
2019-03-12T02:41:12.414Z,3.3
2019-03-12T02:42:21.607Z,3.3
2019-03-12T02:43:30.973Z,3.3
2019-03-12T02:44:39.988Z,3.3
2019-03-12T02:45:49.219Z,3.3
2019-03-12T02:46:58.376Z,3.3
2019-03-12T02:48:07.581Z,3.3
2019-03-12T02:49:16.776Z,3.3
2019-03-12T02:50:26.007Z,3.3
2019-03-12T02:51:35.153Z,3.3
2019-03-12T02:52:44.343Z,3.4
2019-03-12T02:53:53.536Z,3.4
2019-03-12T02:55:02.756Z,3.4
2019-03-12T02:56:11.936Z,3.4
2019-03-12T02:57:21.141Z,3.4
2019-03-12T02:58:30.329Z,3.4
2019-03-12T02:59:39.568Z,3.4
2019-03-12T03:00:48.743Z,3.4
2019-03-12T03:01:57.939Z,3.4
2019-03-12T03:03:07.166Z,3.5
2019-03-12T03:04:16.425Z,3.4
2019-03-12T03:05:25.517Z,3.5
2019-03-12T03:06:34.757Z,3.5
2019-03-12T03:07:43.874Z,3.5
2019-03-12T03:08:53.075Z,3.5
2019-03-12T03:10:02.374Z,3.5
2019-03-12T03:11:11.467Z,3.5
2019-03-12T03:12:20.703Z,3.5
2019-03-12T03:13:29.863Z,3.6
2019-03-12T03:14:39.087Z,3.6
2019-03-12T03:15:48.256Z,3.5
2019-03-12T03:16:57.470Z,3.5
2019-03-12T03:18:06.663Z,3.5
2019-03-12T03:19:15.862Z,3.6
2019-03-12T03:20:25.076Z,3.6
2019-03-12T03:21:34.260Z,3.6
2019-03-12T03:22:43.453Z,3.6
2019-03-12T03:23:52.658Z,3.6
2019-03-12T03:25:01.891Z,3.6
2019-03-12T03:26:11.048Z,3.6
2019-03-12T03:27:20.243Z,3.6
2019-03-12T03:28:29.457Z,3.6
2019-03-12T03:29:38.646Z,3.6
2019-03-12T03:30:47.831Z,3.6
2019-03-12T03:31:57.056Z,3.6
2019-03-12T03:33:06.245Z,3.6
2019-03-12T03:34:15.454Z,3.6
2019-03-12T03:35:24.632Z,3.6
2019-03-12T03:36:33.839Z,3.6
2019-03-12T03:37:43.034Z,3.6
2019-03-12T03:38:52.272Z,3.6
2019-03-12T03:40:01.440Z,3.6
2019-03-12T03:41:10.660Z,3.6
2019-03-12T03:42:19.836Z,3.6
2019-03-12T03:43:29.054Z,3.6
2019-03-12T03:44:38.226Z,3.6
2019-03-12T03:45:47.548Z,3.6
2019-03-12T03:46:56.665Z,3.6
2019-03-12T03:48:05.819Z,3.6
2019-03-12T03:49:15.020Z,3.6
2019-03-12T03:50:24.277Z,3.7
2019-03-12T03:51:33.441Z,3.7
2019-03-12T03:52:42.789Z,3.7
2019-03-12T03:53:51.831Z,3.7
2019-03-12T03:55:01.036Z,3.7
2019-03-12T03:56:10.250Z,3.7
2019-03-12T03:57:19.453Z,3.7
2019-03-12T03:58:28.642Z,3.7
2019-03-12T03:59:37.875Z,3.7
2019-03-12T04:00:47.058Z,3.8
2019-03-12T04:01:56.249Z,3.8
2019-03-12T04:03:05.465Z,3.8
2019-03-12T04:04:14.699Z,3.8
2019-03-12T04:05:23.861Z,3.7
2019-03-12T04:06:34.246Z,3.7
2019-03-12T04:07:42.282Z,3.7
2019-03-12T04:08:51.467Z,3.7
2019-03-12T04:10:00.744Z,3.7
2019-03-12T04:11:09.872Z,3.8
2019-03-12T04:12:19.089Z,3.8
2019-03-12T04:13:28.278Z,3.8
2019-03-12T04:14:37.535Z,3.8
2019-03-12T04:15:46.722Z,3.8
2019-03-12T04:16:55.894Z,3.7
2019-03-12T04:18:05.185Z,3.7
2019-03-12T04:19:14.295Z,3.8
2019-03-12T04:20:23.510Z,3.7
2019-03-12T04:21:32.752Z,3.8
2019-03-12T04:22:41.954Z,3.7
2019-03-12T04:23:51.108Z,3.8
2019-03-12T04:25:00.528Z,3.8
2019-03-12T04:26:09.544Z,3.7
2019-03-12T04:27:18.741Z,3.7
2019-03-12T04:28:27.997Z,3.7
2019-03-12T04:29:37.141Z,3.7
2019-03-12T04:30:46.431Z,3.7
2019-03-12T04:31:55.543Z,3.7
2019-03-12T04:33:04.762Z,3.8
2019-03-12T04:34:14.024Z,3.8
2019-03-12T04:35:23.183Z,3.8
2019-03-12T04:36:32.488Z,3.8
2019-03-12T04:37:41.604Z,3.7
2019-03-12T04:38:50.810Z,3.7
2019-03-12T04:40:00.038Z,3.7
2019-03-12T04:41:09.188Z,3.7
2019-03-12T04:42:18.405Z,3.7
2019-03-12T04:43:27.621Z,3.6
2019-03-12T04:44:36.819Z,3.7
2019-03-12T04:55:22.996Z,3.6
2019-03-12T04:56:08.843Z,3.6
2019-03-12T04:57:18.087Z,3.7
2019-03-12T04:58:27.234Z,3.6
2019-03-12T04:59:36.462Z,3.6
2019-03-12T05:00:45.652Z,3.6
2019-03-12T05:01:54.885Z,3.6
2019-03-12T05:03:04.058Z,3.6
2019-03-12T05:04:13.296Z,3.5
2019-03-12T05:05:22.501Z,3.5
2019-03-12T05:06:31.663Z,3.5
2019-03-12T05:07:40.875Z,3.5
2019-03-12T05:08:50.060Z,3.6
2019-03-12T05:09:59.283Z,3.6
2019-03-12T05:11:08.479Z,3.6
2019-03-12T05:12:17.677Z,3.5
2019-03-12T05:13:26.874Z,3.5
2019-03-12T05:14:36.128Z,3.6
2019-03-12T05:15:45.265Z,3.6
2019-03-12T05:16:54.474Z,3.6
2019-03-12T05:18:03.723Z,3.6
2019-03-12T05:19:12.859Z,3.6
2019-03-12T05:20:22.057Z,3.6
2019-03-12T05:21:31.334Z,3.6
2019-03-12T05:22:40.480Z,3.6
2019-03-12T05:23:49.691Z,3.6
2019-03-12T05:24:59.659Z,3.6
2019-03-12T05:26:08.065Z,3.5
2019-03-12T05:27:17.290Z,3.5
2019-03-12T05:28:26.583Z,3.5
2019-03-12T05:29:35.665Z,3.5
2019-03-12T05:30:44.877Z,3.5
2019-03-12T05:31:54.066Z,3.5
2019-03-12T05:33:03.296Z,3.5
2019-03-12T05:34:12.475Z,3.5
2019-03-12T05:35:21.664Z,3.5
2019-03-12T05:36:30.860Z,3.6
2019-03-12T05:37:40.075Z,3.6
2019-03-12T05:38:49.271Z,3.5
2019-03-12T05:39:58.463Z,3.5
2019-03-12T05:41:07.654Z,3.5
2019-03-12T05:42:16.853Z,3.5
2019-03-12T05:43:26.062Z,3.5
2019-03-12T05:44:35.241Z,3.6
2019-03-12T05:45:44.447Z,3.5
2019-03-12T05:46:53.647Z,3.6
2019-03-12T05:48:02.866Z,3.6
2019-03-12T05:49:12.048Z,3.6
2019-03-12T05:50:21.252Z,3.5
2019-03-12T05:51:30.461Z,3.5
2019-03-12T05:52:39.648Z,3.5
2019-03-12T05:53:48.858Z,3.6
2019-03-12T05:54:58.047Z,3.5
2019-03-12T05:56:07.263Z,3.5
2019-03-12T05:57:16.448Z,3.6
2019-03-12T05:58:25.686Z,3.5
2019-03-12T05:59:34.852Z,3.5
2019-03-12T06:00:44.281Z,3.6
2019-03-12T06:01:53.246Z,3.5
2019-03-12T06:03:02.450Z,3.6
2019-03-12T06:04:11.668Z,3.5
2019-03-12T06:05:20.844Z,3.5
2019-03-12T06:06:30.063Z,3.5
2019-03-12T06:07:39.493Z,3.5
2019-03-12T06:08:48.479Z,3.5
2019-03-12T06:09:57.663Z,3.5
2019-03-12T06:11:06.871Z,3.5
2019-03-12T06:12:16.107Z,3.6
2019-03-12T06:13:25.272Z,3.6
2019-03-12T06:14:34.468Z,3.6
2019-03-12T06:15:43.721Z,3.6
2019-03-12T06:16:52.876Z,3.6
2019-03-12T06:18:02.072Z,3.6
2019-03-12T06:19:11.293Z,3.6
2019-03-12T06:20:20.516Z,3.6
2019-03-12T06:21:29.677Z,3.7
2019-03-12T06:22:38.897Z,3.6
2019-03-12T06:23:48.074Z,3.6
2019-03-12T06:24:57.302Z,3.7
2019-03-12T06:26:06.482Z,3.7
2019-03-12T06:27:18.055Z,3.7
2019-03-12T06:28:24.898Z,3.7
2019-03-12T06:29:34.133Z,3.8
2019-03-12T06:30:43.318Z,3.8
2019-03-12T06:31:52.504Z,3.9
2019-03-12T06:33:01.751Z,3.8
2019-03-12T06:34:10.920Z,3.8
2019-03-12T06:35:20.134Z,3.8
2019-03-12T06:36:29.430Z,3.8
2019-03-12T06:37:38.676Z,3.9
2019-03-12T06:38:47.819Z,3.9
2019-03-12T06:39:56.979Z,3.8
2019-03-12T06:41:06.190Z,3.8
2019-03-12T06:42:15.401Z,4
2019-03-12T06:43:24.628Z,4
2019-03-12T06:44:33.878Z,4.1
2019-03-12T06:45:43.071Z,4
2019-03-12T06:46:52.301Z,4
2019-03-12T06:48:01.488Z,3.9
2019-03-12T06:49:10.696Z,3.8
2019-03-12T06:50:19.913Z,3.8
2019-03-12T06:51:29.209Z,3.9
2019-03-12T06:52:38.378Z,3.9
2019-03-12T06:53:47.616Z,3.9
2019-03-12T06:54:56.791Z,3.9
2019-03-12T06:56:05.993Z,3.9
2019-03-12T06:57:15.254Z,3.9
2019-03-12T06:58:24.443Z,3.9
2019-03-12T06:59:33.638Z,3.8
2019-03-12T07:00:42.869Z,3.9
2019-03-12T07:01:52.202Z,3.9
2019-03-12T07:03:01.368Z,3.9
2019-03-12T07:04:10.523Z,3.9
2019-03-12T07:05:19.711Z,4
2019-03-12T07:06:28.930Z,4
2019-03-12T07:07:41.462Z,3.9
2019-03-12T07:08:47.415Z,3.9
2019-03-12T07:09:56.573Z,3.9
2019-03-12T07:11:05.791Z,3.9
2019-03-12T07:12:15.038Z,3.9
2019-03-12T07:13:24.225Z,3.9
2019-03-12T07:14:33.444Z,3.9
2019-03-12T07:15:42.691Z,3.9
2019-03-12T07:16:51.879Z,3.8
2019-03-12T07:18:01.133Z,3.8
2019-03-12T07:19:10.309Z,3.8
2019-03-12T07:20:19.520Z,3.9
2019-03-12T07:21:28.740Z,4
2019-03-12T07:22:37.960Z,3.9
2019-03-12T07:23:47.189Z,3.9
2019-03-12T07:24:56.399Z,3.9
2019-03-12T07:26:05.619Z,4
2019-03-12T07:27:14.844Z,3.9
2019-03-12T07:28:24.068Z,3.9
2019-03-12T07:29:33.288Z,3.9
2019-03-12T07:30:42.514Z,4
2019-03-12T07:31:51.749Z,4
2019-03-12T07:33:01.128Z,4.1
2019-03-12T07:34:10.190Z,4.2
2019-03-12T07:35:22.518Z,4.3
2019-03-12T07:36:28.650Z,4.3
2019-03-12T07:37:37.875Z,4.3
2019-03-12T07:38:47.108Z,4.4
2019-03-12T07:39:56.461Z,4.3
2019-03-12T07:41:05.586Z,4.2
2019-03-12T07:42:14.828Z,4.3
2019-03-12T07:43:24.084Z,4.3
2019-03-12T07:44:33.302Z,4.4
2019-03-12T07:45:42.521Z,4.4
2019-03-12T07:46:51.771Z,4.5
2019-03-12T07:48:00.993Z,4.4
2019-03-12T07:49:10.231Z,4.5
2019-03-12T07:50:19.568Z,4.5
2019-03-12T07:51:28.717Z,4.5
2019-03-12T07:52:38.008Z,4.5
2019-03-12T07:53:58.805Z,4.5
2019-03-12T07:54:56.445Z,4.6
2019-03-12T07:56:05.693Z,4.6
2019-03-12T07:57:14.898Z,4.7
2019-03-12T07:58:35.085Z,4.7
2019-03-12T07:59:33.370Z,4.7
2019-03-12T08:00:42.625Z,4.6
2019-03-12T08:01:51.844Z,4.6
2019-03-12T08:03:01.083Z,4.6
2019-03-12T08:04:10.325Z,4.6
2019-03-12T08:05:19.574Z,4.7
2019-03-12T08:06:28.790Z,4.7
2019-03-12T08:07:38.039Z,4.7
2019-03-12T08:08:47.358Z,4.6
2019-03-12T08:09:56.519Z,4.7
2019-03-12T08:11:05.741Z,4.6
2019-03-12T08:12:14.984Z,4.6
2019-03-12T08:13:24.224Z,4.7
2019-03-12T08:14:33.479Z,4.8
2019-03-12T08:15:42.950Z,5
2019-03-12T08:16:52.008Z,5
2019-03-12T08:18:01.267Z,4.9
2019-03-12T08:19:10.483Z,5.1
2019-03-12T08:20:19.775Z,5.2
2019-03-12T08:21:28.987Z,5.2
2019-03-12T08:22:38.232Z,5
2019-03-12T08:23:47.611Z,5
2019-03-12T08:24:56.739Z,5.1
2019-03-12T08:26:05.986Z,5
2019-03-12T08:27:15.243Z,5
2019-03-12T08:28:24.546Z,5
2019-03-12T08:29:33.789Z,5
2019-03-12T08:30:43.010Z,5
2019-03-12T08:31:52.235Z,5.1
2019-03-12T08:33:01.708Z,5
2019-03-12T08:34:10.744Z,5
2019-03-12T08:35:20.002Z,4.9
2019-03-12T08:36:29.297Z,5
2019-03-12T08:37:38.664Z,5.1
2019-03-12T08:38:47.806Z,5.1
2019-03-12T08:39:57.078Z,5.2
2019-03-12T08:41:06.335Z,5.2
2019-03-12T08:42:15.527Z,5.3
2019-03-12T08:43:24.833Z,5.4
2019-03-12T08:44:37.348Z,5.4
2019-03-12T08:45:45.293Z,5.3
2019-03-12T08:46:52.542Z,5.5
2019-03-12T08:48:01.801Z,5.5
2019-03-12T08:49:11.247Z,5.6
2019-03-12T08:50:20.334Z,5.6
2019-03-12T08:51:29.607Z,5.7
2019-03-12T08:52:38.840Z,5.7
2019-03-12T08:53:48.157Z,5.8
2019-03-12T08:54:57.480Z,6.1
2019-03-12T08:56:06.769Z,6.1
2019-03-12T08:57:15.944Z,6.3
2019-03-12T08:58:25.232Z,6.5
2019-03-12T08:59:34.535Z,6.6
2019-03-12T09:00:43.866Z,6.7
2019-03-12T09:01:53.111Z,6.8
2019-03-12T09:03:02.410Z,6.9
2019-03-12T09:04:11.748Z,6.5
2019-03-12T09:05:21.006Z,6.5
2019-03-12T09:06:31.427Z,6.6
2019-03-12T09:07:40.685Z,6.6
2019-03-12T09:08:50.017Z,6.4
2019-03-12T09:09:59.272Z,6.5
2019-03-12T09:11:08.573Z,6.5
2019-03-12T09:12:17.962Z,6.4
2019-03-12T09:13:27.165Z,6.4
2019-03-12T09:14:36.515Z,6.2
2019-03-12T09:15:45.774Z,6
2019-03-12T09:16:55.076Z,6
2019-03-12T09:18:04.468Z,6
2019-03-12T09:19:13.671Z,6.1
2019-03-12T09:20:22.958Z,6.1
2019-03-12T09:21:32.380Z,6.2
2019-03-12T09:22:41.554Z,6.2
2019-03-12T09:23:50.907Z,6.2
2019-03-12T09:25:00.404Z,6.1
2019-03-12T09:26:09.462Z,6.1
2019-03-12T09:27:18.731Z,6.4
2019-03-12T09:28:28.038Z,6.8
2019-03-12T09:29:37.346Z,7.3
2019-03-12T09:30:46.701Z,7.2
2019-03-12T09:31:55.991Z,7.1
2019-03-12T09:33:05.353Z,7.1
2019-03-12T09:34:14.646Z,7.2
2019-03-12T09:35:23.917Z,7.4
2019-03-12T09:36:33.260Z,7.5
2019-03-12T09:37:42.610Z,7.7
2019-03-12T09:38:51.941Z,7.6
2019-03-12T09:40:01.386Z,7.7
2019-03-12T09:41:10.633Z,7.5
2019-03-12T09:42:19.933Z,7.6
2019-03-12T09:43:29.274Z,7.5
2019-03-12T09:44:38.643Z,7.8
2019-03-12T09:45:47.951Z,8
2019-03-12T09:46:57.292Z,8
2019-03-12T09:48:06.656Z,8
2019-03-12T09:49:15.985Z,7.8
2019-03-12T09:50:25.354Z,7.4
2019-03-12T09:51:34.679Z,7.1
2019-03-12T09:52:44.023Z,7.2
2019-03-12T09:53:53.378Z,7.2
2019-03-12T09:55:04.855Z,7.3
2019-03-12T09:56:12.188Z,7.2
2019-03-12T09:57:21.643Z,7.4
2019-03-12T09:58:30.796Z,7.7
2019-03-12T09:59:40.196Z,8.1
2019-03-12T10:00:49.495Z,8.7
2019-03-12T10:01:59.539Z,8.3
2019-03-12T10:03:08.235Z,8.3
2019-03-12T10:04:17.809Z,8.2
2019-03-12T10:05:26.915Z,8
2019-03-12T10:06:36.389Z,7.9
2019-03-12T10:07:45.590Z,7.9
2019-03-12T10:08:55.015Z,8.1
2019-03-12T10:10:04.299Z,8.2
2019-03-12T10:11:13.654Z,8.2
2019-03-12T10:12:23.026Z,8.1
2019-03-12T10:13:32.406Z,8.2
2019-03-12T10:14:41.747Z,8.1
2019-03-12T10:15:51.157Z,8.2
2019-03-12T10:17:00.454Z,8.5
2019-03-12T10:18:09.808Z,8.5
2019-03-12T10:19:19.171Z,8.8
2019-03-12T10:20:28.568Z,8.2
2019-03-12T10:21:37.918Z,8.1
2019-03-12T10:22:47.287Z,8.1
2019-03-12T10:23:56.577Z,8.5
2019-03-12T10:25:05.982Z,8
2019-03-12T10:26:15.302Z,8.1
2019-03-12T10:27:24.708Z,8.3
2019-03-12T10:28:34.037Z,8.6
2019-03-12T10:29:43.392Z,8.9
2019-03-12T10:30:52.771Z,9
2019-03-12T10:32:02.175Z,8.9
2019-03-12T10:33:12.053Z,9
2019-03-12T10:34:29.380Z,9.7
2019-03-12T10:35:30.255Z,8.5
2019-03-12T10:36:39.653Z,8.7
2019-03-12T10:37:48.990Z,8.8
2019-03-12T10:38:58.366Z,8.9
2019-03-12T10:40:07.753Z,8.6
2019-03-12T10:41:17.262Z,8.5
2019-03-12T10:42:26.501Z,8.2
2019-03-12T10:43:35.882Z,8.1
2019-03-12T10:44:45.258Z,8
2019-03-12T10:45:54.638Z,8.1
2019-03-12T10:47:04.000Z,8.4
2019-03-12T10:48:13.354Z,8.8
2019-03-12T10:49:22.715Z,8.2
2019-03-12T10:50:32.130Z,8.2
2019-03-12T10:51:41.477Z,8
2019-03-12T10:52:50.823Z,8.9
2019-03-12T10:54:00.224Z,9.1
2019-03-12T10:55:13.264Z,9.3
2019-03-12T10:56:18.956Z,9.2
2019-03-12T10:57:28.430Z,8.9
2019-03-12T10:58:37.768Z,9
2019-03-12T10:59:47.098Z,9.8
2019-03-12T11:00:56.662Z,10.5
2019-03-12T11:02:06.334Z,10
2019-03-12T11:03:15.253Z,10.2
2019-03-12T11:04:24.696Z,10.8
2019-03-12T11:05:45.158Z,9.6
2019-03-12T11:06:43.761Z,10.3
2019-03-12T11:07:52.913Z,10.4
2019-03-12T11:09:02.300Z,10
2019-03-12T11:10:11.929Z,10.1
2019-03-12T11:11:21.124Z,10.7
2019-03-12T11:12:30.541Z,9.5
2019-03-12T11:13:39.972Z,9.4
2019-03-12T11:14:49.404Z,9.7
2019-03-12T11:15:58.817Z,9.8
2019-03-12T11:17:08.231Z,9.2
2019-03-12T11:18:17.652Z,9.6
2019-03-12T11:19:27.077Z,10
2019-03-12T11:20:36.662Z,9.8
2019-03-12T11:21:45.974Z,9.4
2019-03-12T11:22:55.355Z,8.9
2019-03-12T11:24:04.856Z,9.3
2019-03-12T11:25:26.271Z,9.7
2019-03-12T11:26:23.582Z,9.3
2019-03-12T11:27:32.994Z,9.1
2019-03-12T11:28:42.465Z,9.5
2019-03-12T11:29:51.778Z,9.5
2019-03-12T11:31:01.338Z,8.9
2019-03-12T11:32:10.642Z,9.2
2019-03-12T11:33:20.180Z,8.9
2019-03-12T11:34:29.397Z,9
2019-03-12T11:35:39.659Z,9.4
2019-03-12T11:36:48.220Z,9.4
2019-03-12T11:37:57.629Z,9.8
2019-03-12T11:39:07.010Z,9.7
2019-03-12T11:40:16.599Z,9.9
2019-03-12T11:41:25.889Z,9.6
2019-03-12T11:42:35.189Z,9.9
2019-03-12T11:43:44.631Z,10.4
2019-03-12T11:44:54.014Z,11
2019-03-12T11:46:03.398Z,11.4
2019-03-12T11:47:12.892Z,10.9
2019-03-12T11:48:22.318Z,9.7
2019-03-12T11:49:31.678Z,10
2019-03-12T11:50:41.098Z,9.7
2019-03-12T11:51:50.487Z,9.3
2019-03-12T11:53:00.437Z,9.8
2019-03-12T11:54:09.666Z,10.2
2019-03-12T11:55:18.707Z,10.2
2019-03-12T11:56:28.158Z,10.3
2019-03-12T11:57:37.532Z,10.8
2019-03-12T11:58:47.030Z,11
2019-03-12T11:59:56.371Z,11.2
2019-03-12T12:01:05.964Z,12
2019-03-12T12:02:15.510Z,12.2
2019-03-12T12:03:24.671Z,12.3
2019-03-12T12:04:34.119Z,11.6
2019-03-12T12:05:43.578Z,11.7
2019-03-12T12:06:53.048Z,12.5
2019-03-12T12:08:02.647Z,11.7
2019-03-12T12:09:12.082Z,11.5
2019-03-12T12:10:21.452Z,10.8
2019-03-12T12:11:30.926Z,11
2019-03-12T12:12:40.380Z,11
2019-03-12T12:13:49.882Z,11.6
2019-03-12T12:14:59.415Z,11.9
2019-03-12T12:16:08.862Z,11.5
2019-03-12T12:17:18.321Z,11.1
2019-03-12T12:18:27.793Z,10.1
2019-03-12T12:19:37.278Z,9.5
2019-03-12T12:20:46.725Z,10.1
2019-03-12T12:21:56.234Z,10.5
2019-03-12T12:23:05.628Z,9.3
2019-03-12T12:24:15.122Z,9.5
2019-03-12T12:25:24.617Z,9.9
2019-03-12T12:26:33.995Z,10.1
2019-03-12T12:27:43.464Z,9.9
2019-03-12T12:28:53.079Z,10.6
2019-03-12T12:30:02.401Z,11.1
2019-03-12T12:31:12.002Z,11.5
2019-03-12T12:32:21.281Z,11.9
2019-03-12T12:33:30.760Z,11.1
2019-03-12T12:34:40.198Z,11.1
2019-03-12T12:35:49.685Z,10.1
2019-03-12T12:36:59.105Z,11.2
2019-03-12T12:38:08.574Z,11.5
2019-03-12T12:39:18.077Z,9.8
2019-03-12T12:40:27.494Z,10
2019-03-12T12:41:36.946Z,10.1
2019-03-12T12:42:46.439Z,9.9
2019-03-12T12:43:55.915Z,10.3
2019-03-12T12:45:05.328Z,10.2
2019-03-12T12:46:14.756Z,11.1
2019-03-12T12:47:24.245Z,10.7
2019-03-12T12:48:33.705Z,9.9
2019-03-12T12:49:43.148Z,10.4
2019-03-12T12:51:02.751Z,10.3
2019-03-12T12:52:02.082Z,10.6
2019-03-12T12:53:11.589Z,10.3
2019-03-12T12:54:20.915Z,10.4
2019-03-12T12:55:30.356Z,10.1
2019-03-12T12:56:39.853Z,10.4
2019-03-12T12:57:49.308Z,10.1
2019-03-12T12:58:58.696Z,10.4
2019-03-12T13:00:08.201Z,10.8
2019-03-12T13:01:17.634Z,10.3
2019-03-12T13:02:27.097Z,9.7
2019-03-12T13:03:36.553Z,9.8
2019-03-12T13:04:46.188Z,10.6
2019-03-12T13:05:55.800Z,11.3
2019-03-12T13:07:04.861Z,11.4
2019-03-12T13:08:14.598Z,11.4
2019-03-12T13:09:23.818Z,11.1
2019-03-12T13:10:33.295Z,10.6
2019-03-12T13:11:42.725Z,9.4
2019-03-12T13:12:52.143Z,9.7
2019-03-12T13:14:01.665Z,9.3
2019-03-12T13:15:11.109Z,9.5
2019-03-12T13:16:25.256Z,9.3
2019-03-12T13:17:29.904Z,9.7
2019-03-12T13:18:39.368Z,9.5
2019-03-12T13:19:48.886Z,9.4
2019-03-12T13:20:58.274Z,9.6
2019-03-12T13:22:07.817Z,10
2019-03-12T13:23:17.168Z,10.3
2019-03-12T13:24:26.660Z,10.6
2019-03-12T13:25:36.003Z,10.6
2019-03-12T13:26:45.444Z,10.4
2019-03-12T13:27:55.183Z,10.5
2019-03-12T13:29:04.280Z,10.1
2019-03-12T13:30:13.774Z,9.8
2019-03-12T13:31:23.119Z,9.8
2019-03-12T13:32:32.723Z,9.3
2019-03-12T13:33:41.993Z,9.6
2019-03-12T13:34:51.539Z,10
2019-03-12T13:36:00.809Z,10.1
2019-03-12T13:37:10.247Z,10.1
2019-03-12T13:38:19.661Z,10
2019-03-12T13:39:29.007Z,10
2019-03-12T13:40:38.505Z,9.9
2019-03-12T13:41:47.838Z,9.9
2019-03-12T13:42:57.290Z,9.8
2019-03-12T13:44:06.707Z,10.1
2019-03-12T13:45:16.265Z,9.7
2019-03-12T13:46:25.567Z,9.6
2019-03-12T13:47:35.169Z,10
2019-03-12T13:48:44.513Z,9.9
2019-03-12T13:49:53.983Z,10.3
2019-03-12T13:51:03.483Z,9.8
2019-03-12T13:52:13.039Z,10.3
2019-03-12T13:53:22.589Z,9.6
2019-03-12T13:54:32.028Z,9.4
2019-03-12T13:55:41.412Z,9.8
2019-03-12T13:56:50.809Z,10.3
2019-03-12T13:58:00.258Z,10.3
2019-03-12T13:59:09.760Z,9.8
2019-03-12T14:00:19.263Z,10
2019-03-12T14:01:28.656Z,9.6
2019-03-12T14:02:38.049Z,9.5
2019-03-12T14:03:47.563Z,9.3
2019-03-12T14:04:56.953Z,9.5
2019-03-12T14:06:06.675Z,9.3
2019-03-12T14:07:15.775Z,9.4
2019-03-12T14:08:25.352Z,9.2
2019-03-12T14:09:34.731Z,9.2
2019-03-12T14:10:43.987Z,9.3
2019-03-12T14:11:53.375Z,9.4
2019-03-12T14:13:02.807Z,9.5
2019-03-12T14:14:12.299Z,9.3
2019-03-12T14:15:21.585Z,9.2
2019-03-12T14:16:30.994Z,9.3
2019-03-12T14:17:40.398Z,9.5
2019-03-12T14:18:49.799Z,9.6
2019-03-12T14:19:59.236Z,9.2
2019-03-12T14:21:08.595Z,9.2
2019-03-12T14:22:18.021Z,9.3
2019-03-12T14:23:27.407Z,9.2
2019-03-12T14:24:36.785Z,9.4
2019-03-12T14:25:46.331Z,9.5
2019-03-12T14:26:55.584Z,9.6
2019-03-12T14:28:04.984Z,9.8
2019-03-12T14:29:14.385Z,9.3
2019-03-12T14:30:23.801Z,9.4
2019-03-12T14:31:33.257Z,9.2
2019-03-12T14:32:42.615Z,9.1
2019-03-12T14:33:51.945Z,9.3
2019-03-12T14:35:01.456Z,9.3
2019-03-12T14:36:10.841Z,9.2
2019-03-12T14:37:20.171Z,9.4
2019-03-12T14:38:29.514Z,9.2
2019-03-12T14:39:39.212Z,9.2
2019-03-12T14:40:48.377Z,9.1
2019-03-12T14:41:57.604Z,9.1
2019-03-12T14:43:07.020Z,9.2
2019-03-12T14:44:16.378Z,9
2019-03-12T14:45:25.746Z,9.1
2019-03-12T14:46:35.337Z,8.9
2019-03-12T14:47:44.587Z,9
2019-03-12T14:48:53.845Z,9
2019-03-12T14:50:03.249Z,9
2019-03-12T14:51:12.584Z,9
2019-03-12T14:52:21.976Z,9.1
2019-03-12T14:53:31.417Z,9
2019-03-12T14:54:40.665Z,8.9
2019-03-12T14:55:50.025Z,9.1
2019-03-12T14:56:59.580Z,9
2019-03-12T14:58:08.730Z,9
2019-03-12T14:59:18.124Z,9
2019-03-12T15:00:27.473Z,9
2019-03-12T15:01:36.844Z,9.2
2019-03-12T15:02:46.272Z,9.2
2019-03-12T15:03:55.568Z,9.2
2019-03-12T15:05:04.949Z,9.1
2019-03-12T15:06:14.323Z,9
2019-03-12T15:07:23.632Z,9.1
2019-03-12T15:08:32.999Z,9.1
2019-03-12T15:09:42.366Z,8.9
2019-03-12T15:10:51.719Z,9
2019-03-12T15:12:01.082Z,9.1
2019-03-12T15:13:10.457Z,9.1
2019-03-12T15:14:19.868Z,9
2019-03-12T15:15:29.429Z,9
2019-03-12T15:16:38.560Z,9.1
2019-03-12T15:17:47.954Z,9
2019-03-12T15:18:57.281Z,9.2
2019-03-12T15:20:06.825Z,9.1
2019-03-12T15:21:16.095Z,9.1
2019-03-12T15:22:25.391Z,9.1
2019-03-12T15:23:34.750Z,9
2019-03-12T15:24:44.130Z,9
2019-03-12T15:25:53.475Z,9
2019-03-12T15:27:03.118Z,9
2019-03-12T15:28:12.226Z,9
2019-03-12T15:29:21.584Z,8.9
2019-03-12T15:30:30.921Z,9
2019-03-12T15:31:40.277Z,8.9
2019-03-12T15:32:49.821Z,8.8
2019-03-12T15:33:58.998Z,8.9
2019-03-12T15:35:08.429Z,8.8
2019-03-12T15:36:17.789Z,8.9
2019-03-12T15:37:27.105Z,8.8
2019-03-12T15:38:36.409Z,8.8
2019-03-12T15:39:45.800Z,8.8
2019-03-12T15:40:55.149Z,8.9
2019-03-12T15:42:04.442Z,8.9
2019-03-12T15:43:13.790Z,8.9
2019-03-12T15:44:23.134Z,8.9
2019-03-12T15:45:32.552Z,8.9
2019-03-12T15:46:41.909Z,8.9
2019-03-12T15:47:51.167Z,8.9
2019-03-12T15:49:00.525Z,8.9
2019-03-12T15:50:09.968Z,8.9
2019-03-12T15:51:19.199Z,8.9
2019-03-12T15:52:28.552Z,8.9
2019-03-12T15:53:37.884Z,8.9
2019-03-12T15:54:47.210Z,8.9
2019-03-12T15:55:56.687Z,8.9
2019-03-12T15:57:05.907Z,8.9
2019-03-12T15:58:15.295Z,8.9
2019-03-12T15:59:24.591Z,8.9
2019-03-12T16:00:33.918Z,8.9
2019-03-12T16:01:43.267Z,8.9
2019-03-12T16:02:52.602Z,8.9
2019-03-12T16:04:01.958Z,8.9
2019-03-12T16:05:11.372Z,8.8
2019-03-12T16:06:20.643Z,8.8